createdAt,value
2022-11-05T00:00:31.010Z,89.62
2022-11-05T00:03:18.082Z,89.57
2022-11-05T00:06:04.201Z,89.80
2022-11-05T00:08:49.913Z,89.79
2022-11-05T00:11:18.588Z,89.74
2022-11-05T00:14:04.247Z,89.90
2022-11-05T00:16:46.986Z,89.82
2022-11-05T00:19:16.873Z,89.97
2022-11-05T00:22:02.057Z,89.96
2022-11-05T00:24:47.825Z,90.22
2022-11-05T00:27:15.715Z,90.32
2022-11-05T00:29:43.877Z,90.59
2022-11-05T00:32:11.729Z,90.60
2022-11-05T00:34:42.458Z,90.66
2022-11-05T00:37:10.494Z,90.69
2022-11-05T00:39:38.361Z,90.66
2022-11-05T00:42:23.985Z,90.81
2022-11-05T00:45:04.237Z,90.75
2022-11-05T00:47:50.708Z,90.73
2022-11-05T00:50:21.228Z,90.78
2022-11-05T00:52:57.893Z,90.76
2022-11-05T00:55:29.111Z,90.50
2022-11-05T00:57:58.324Z,90.38
2022-11-05T01:00:28.486Z,90.22
2022-11-05T01:03:00.039Z,90.56
2022-11-05T01:05:33.414Z,90.08
2022-11-05T01:08:02.195Z,90.06
2022-11-05T01:10:30.818Z,89.93
2022-11-05T01:12:59.203Z,90.24
2022-11-05T01:15:27.285Z,90.25
2022-11-05T01:17:55.263Z,90.24
2022-11-05T01:20:23.299Z,90.43
2022-11-05T01:22:52.524Z,90.69
2022-11-05T01:25:20.508Z,90.87
2022-11-05T01:27:48.507Z,91.16
2022-11-05T01:30:16.650Z,91.32
2022-11-05T01:32:44.642Z,91.67
2022-11-05T01:35:15.143Z,91.72
2022-11-05T01:37:43.573Z,91.68
2022-11-05T01:40:15.126Z,92.05
2022-11-05T01:42:43.825Z,91.74
2022-11-05T01:45:18.077Z,91.66
2022-11-05T01:48:05.125Z,91.44
2022-11-05T01:50:44.376Z,91.49
2022-11-05T01:53:22.088Z,91.40
2022-11-05T01:55:58.874Z,91.51
2022-11-05T01:58:35.971Z,91.44
2022-11-05T02:01:04.222Z,91.60
2022-11-05T02:03:36.039Z,91.50
2022-11-05T02:06:04.994Z,91.40
2022-11-05T02:08:46.582Z,91.62
2022-11-05T02:11:20.144Z,91.74
2022-11-05T02:13:49.123Z,91.69
2022-11-05T02:16:29.264Z,91.85
2022-11-05T02:19:08.052Z,91.97
2022-11-05T02:21:59.219Z,92.08
2022-11-05T02:24:54.790Z,91.93
2022-11-05T02:27:42.239Z,91.91
2022-11-05T02:30:33.940Z,92.18
2022-11-05T02:33:23.211Z,92.01
2022-11-05T02:36:14.987Z,92.07
2022-11-05T02:38:57.443Z,91.91
2022-11-05T02:41:32.092Z,92.07
2022-11-05T02:44:11.538Z,91.99
2022-11-05T02:46:52.581Z,91.99
2022-11-05T02:49:34.661Z,92.19
2022-11-05T02:52:07.895Z,92.17
2022-11-05T02:54:43.311Z,92.41
2022-11-05T02:57:11.272Z,92.65
2022-11-05T02:59:39.251Z,92.62
2022-11-05T03:02:08.764Z,92.79
2022-11-05T03:04:38.940Z,92.75
2022-11-05T03:07:28.035Z,92.78
2022-11-05T03:10:24.699Z,92.47
2022-11-05T03:13:03.324Z,92.47
2022-11-05T03:15:48.720Z,92.20
2022-11-05T03:18:25.251Z,92.23
2022-11-05T03:21:01.891Z,91.97
2022-11-05T03:23:37.200Z,92.01
2022-11-05T03:26:11.643Z,92.12
2022-11-05T03:28:44.149Z,92.16
2022-11-05T03:31:15.580Z,92.17
2022-11-05T03:33:46.692Z,92.23
2022-11-05T03:36:20.859Z,92.30
2022-11-05T03:38:55.398Z,92.12
2022-11-05T03:41:29.220Z,91.79
2022-11-05T03:43:59.891Z,92.08
2022-11-05T03:46:31.906Z,91.92
2022-11-05T03:49:05.788Z,92.15
2022-11-05T03:51:40.035Z,91.92
2022-11-05T03:54:08.383Z,91.91
2022-11-05T03:56:41.063Z,91.70
2022-11-05T03:59:12.113Z,91.31
2022-11-05T04:01:40.815Z,91.34
2022-11-05T04:04:10.813Z,91.09
2022-11-05T04:06:56.106Z,90.99
2022-11-05T04:09:41.333Z,90.71
2022-11-05T04:12:27.679Z,90.45
2022-11-05T04:14:55.649Z,90.34
2022-11-05T04:17:22.463Z,90.13
2022-11-05T04:20:08.890Z,89.77
2022-11-05T04:22:55.226Z,89.68
2022-11-05T04:25:24.059Z,89.36
2022-11-05T04:27:52.373Z,89.62
2022-11-05T04:30:19.829Z,89.85
2022-11-05T04:32:58.767Z,89.31
2022-11-05T04:35:29.039Z,89.52
2022-11-05T04:38:00.376Z,89.57
2022-11-05T04:40:28.646Z,89.49
2022-11-05T04:42:57.285Z,89.35
2022-11-05T04:45:26.171Z,89.28
2022-11-05T04:47:54.038Z,89.48
2022-11-05T04:50:22.138Z,89.49
2022-11-05T04:52:51.847Z,89.38
2022-11-05T04:55:21.157Z,89.32
2022-11-05T04:57:50.458Z,89.39
2022-11-05T05:00:19.654Z,89.47
2022-11-05T05:02:47.982Z,89.26
2022-11-05T05:05:16.088Z,89.29
2022-11-05T05:07:44.463Z,89.53
2022-11-05T05:10:13.846Z,89.42
2022-11-05T05:12:41.735Z,89.29
2022-11-05T05:15:10.023Z,89.48
2022-11-05T05:17:37.892Z,89.49
2022-11-05T05:20:24.035Z,89.48
2022-11-05T05:22:55.893Z,89.63
2022-11-05T05:25:25.159Z,89.53
2022-11-05T05:27:57.807Z,89.59
2022-11-05T05:30:26.104Z,89.70
2022-11-05T05:32:53.970Z,89.62
2022-11-05T05:35:21.947Z,89.75
2022-11-05T05:37:49.764Z,89.71
2022-11-05T05:40:17.810Z,89.60
2022-11-05T05:42:47.159Z,89.84
2022-11-05T05:45:15.036Z,89.82
2022-11-05T05:47:42.840Z,89.94
2022-11-05T05:50:10.759Z,90.01
2022-11-05T05:52:38.619Z,90.00
2022-11-05T05:55:07.282Z,89.91
2022-11-05T05:57:35.891Z,89.94
2022-11-05T06:00:06.491Z,89.96
2022-11-05T06:02:34.436Z,90.13
2022-11-05T06:05:02.484Z,90.01
2022-11-05T06:07:35.955Z,89.97
2022-11-05T06:10:06.275Z,89.88
2022-11-05T06:12:34.179Z,89.91
2022-11-05T06:15:02.029Z,89.40
2022-11-05T06:17:31.332Z,88.98
2022-11-05T06:19:59.330Z,88.82
2022-11-05T06:22:27.216Z,88.68
2022-11-05T06:24:55.176Z,88.48
2022-11-05T06:27:23.053Z,88.19
2022-11-05T06:29:50.895Z,88.00
2022-11-05T06:32:18.777Z,87.97
2022-11-05T06:34:48.123Z,87.85
2022-11-05T06:37:16.012Z,87.70
2022-11-05T06:39:43.999Z,87.57
2022-11-05T06:42:18.237Z,87.51
2022-11-05T06:44:46.992Z,87.42
2022-11-05T06:47:14.876Z,87.31
2022-11-05T06:49:42.732Z,87.25
2022-11-05T06:52:12.068Z,86.99
2022-11-05T06:54:40.207Z,87.09
2022-11-05T06:57:09.633Z,86.86
2022-11-05T06:59:37.582Z,86.75
2022-11-05T07:02:06.317Z,86.67
2022-11-05T07:04:34.582Z,86.62
2022-11-05T07:07:04.867Z,86.33
2022-11-05T07:09:34.187Z,86.25
2022-11-05T07:12:02.058Z,86.04
2022-11-05T07:14:29.986Z,85.95
2022-11-05T07:16:58.605Z,85.85
2022-11-05T07:19:26.430Z,85.88
2022-11-05T07:21:54.228Z,85.88
2022-11-05T07:24:22.145Z,85.87
2022-11-05T07:26:51.398Z,85.61
2022-11-05T07:29:19.193Z,85.55
2022-11-05T07:31:47.671Z,85.28
2022-11-05T07:34:15.598Z,85.55
2022-11-05T07:36:43.437Z,85.43
2022-11-05T07:39:11.263Z,85.31
2022-11-05T07:41:39.088Z,85.06
2022-11-05T07:44:08.543Z,85.22
2022-11-05T07:46:36.552Z,85.22
2022-11-05T07:49:04.884Z,84.91
2022-11-05T07:51:32.736Z,84.74
2022-11-05T07:54:00.767Z,84.48
2022-11-05T07:56:28.631Z,84.27
2022-11-05T07:58:56.493Z,84.20
2022-11-05T08:01:26.165Z,83.63
2022-11-05T08:03:54.121Z,83.50
2022-11-05T08:06:21.975Z,83.62
2022-11-05T08:08:49.985Z,83.25
2022-11-05T08:11:18.908Z,83.18
2022-11-05T08:13:46.745Z,83.00
2022-11-05T08:16:15.574Z,82.87
2022-11-05T08:18:44.876Z,82.93
2022-11-05T08:21:12.785Z,82.74
2022-11-05T08:23:42.581Z,82.79
2022-11-05T08:26:11.394Z,82.91
2022-11-05T08:28:39.244Z,82.93
2022-11-05T08:31:07.213Z,82.92
2022-11-05T08:33:35.253Z,82.95
2022-11-05T08:36:05.837Z,82.85
2022-11-05T08:38:33.949Z,82.97
2022-11-05T08:41:01.889Z,82.93
2022-11-05T08:43:29.971Z,83.08
2022-11-05T08:45:58.006Z,83.30
2022-11-05T08:48:25.971Z,83.33
2022-11-05T08:50:54.009Z,83.05
2022-11-05T08:53:23.268Z,83.50
2022-11-05T08:55:51.647Z,83.44
2022-11-05T08:58:20.790Z,83.52
2022-11-05T09:00:50.971Z,83.88
2022-11-05T09:03:19.540Z,84.01
2022-11-05T09:05:47.776Z,84.08
2022-11-05T09:08:17.752Z,84.18
2022-11-05T09:10:49.930Z,84.64
2022-11-05T09:13:19.745Z,84.63
2022-11-05T09:15:48.755Z,84.71
2022-11-05T09:18:17.359Z,84.96
2022-11-05T09:20:45.530Z,85.08
2022-11-05T09:23:15.494Z,85.25
2022-11-05T09:25:43.568Z,85.52
2022-11-05T09:28:16.890Z,85.56
2022-11-05T09:30:46.392Z,85.61
2022-11-05T09:33:15.490Z,85.98
2022-11-05T09:35:43.930Z,85.87
2022-11-05T09:38:11.976Z,85.95
2022-11-05T09:40:45.999Z,86.09
2022-11-05T09:43:19.173Z,86.30
2022-11-05T09:45:49.326Z,86.48
2022-11-05T09:48:21.381Z,86.58
2022-11-05T09:50:51.644Z,86.86
2022-11-05T09:53:21.070Z,87.05
2022-11-05T09:55:52.657Z,87.31
2022-11-05T09:58:29.027Z,87.69
2022-11-05T10:00:58.243Z,88.08
2022-11-05T10:03:30.597Z,88.60
2022-11-05T10:06:10.045Z,88.79
2022-11-05T10:08:43.365Z,89.52
2022-11-05T10:11:16.773Z,89.59
2022-11-05T10:13:48.944Z,90.25
2022-11-05T10:16:25.343Z,90.98
2022-11-05T10:18:58.340Z,91.20
2022-11-05T10:21:51.450Z,92.05
2022-11-05T10:24:16.412Z,92.51
2022-11-05T10:26:46.563Z,93.10
2022-11-05T10:29:21.509Z,93.54
2022-11-05T10:31:49.885Z,94.10
2022-11-05T10:34:21.076Z,94.68
2022-11-05T10:36:49.448Z,95.15
2022-11-05T10:39:20.055Z,95.67
2022-11-05T10:42:04.050Z,96.60
2022-11-05T10:44:40.723Z,96.90
2022-11-05T10:47:44.897Z,97.85
2022-11-05T10:50:15.577Z,97.48
2022-11-05T10:52:54.887Z,98.35
2022-11-05T10:55:26.043Z,98.43
2022-11-05T10:57:54.899Z,98.68
2022-11-05T11:00:28.417Z,99.84
2022-11-05T11:02:59.474Z,99.95
2022-11-05T11:05:30.099Z,100.00
2022-11-05T11:08:02.618Z,100.00
2022-11-05T11:10:33.977Z,100.00
2022-11-05T11:13:02.137Z,100.00
2022-11-05T11:15:35.238Z,100.00
2022-11-05T11:18:27.403Z,100.00
2022-11-05T11:21:05.643Z,100.00
2022-11-05T11:23:38.414Z,100.00
2022-11-05T11:26:07.410Z,100.00
2022-11-05T11:28:38.686Z,100.00
2022-11-05T11:31:10.716Z,100.00
2022-11-05T11:33:40.569Z,100.00
2022-11-05T11:36:10.964Z,100.00
2022-11-05T11:38:39.962Z,100.00
2022-11-05T11:41:25.181Z,100.00
2022-11-05T11:43:58.423Z,100.00
2022-11-05T11:46:33.438Z,100.00
2022-11-05T11:49:02.155Z,100.00
2022-11-05T11:51:37.681Z,100.00
2022-11-05T11:54:06.311Z,100.00
2022-11-05T11:56:44.849Z,100.00
2022-11-05T11:59:40.438Z,100.00
2022-11-05T12:02:34.009Z,100.00
2022-11-05T12:05:18.188Z,100.00
2022-11-05T12:07:52.901Z,100.00
2022-11-05T12:10:37.983Z,100.00
2022-11-05T12:13:34.344Z,100.00
2022-11-05T12:16:12.654Z,100.00
2022-11-05T12:18:48.828Z,100.00
2022-11-05T12:21:47.688Z,100.00
2022-11-05T12:24:30.392Z,100.00
2022-11-05T12:27:09.514Z,100.00
2022-11-05T12:29:52.349Z,100.00
2022-11-05T12:32:46.889Z,100.00
2022-11-05T12:35:29.602Z,100.00
2022-11-05T12:38:06.990Z,100.00
2022-11-05T12:40:45.102Z,100.00
2022-11-05T12:43:23.325Z,100.00
2022-11-05T12:45:57.349Z,100.00
2022-11-05T12:48:43.195Z,100.00
2022-11-05T12:51:24.941Z,100.00
2022-11-05T12:54:05.884Z,100.00
2022-11-05T12:56:38.120Z,100.00
2022-11-05T12:59:17.960Z,100.00
2022-11-05T13:01:50.263Z,100.00
2022-11-05T13:04:30.206Z,100.00
2022-11-05T13:07:04.227Z,100.00
2022-11-05T13:09:37.491Z,100.00
2022-11-05T13:12:09.215Z,100.00
2022-11-05T13:14:44.468Z,100.00
2022-11-05T13:17:16.563Z,100.00
2022-11-05T13:19:53.491Z,100.00
2022-11-05T13:22:32.204Z,100.00
2022-11-05T13:25:05.820Z,100.00
2022-11-05T13:27:51.946Z,100.00
2022-11-05T13:30:23.122Z,100.00
2022-11-05T13:32:58.166Z,100.00
2022-11-05T13:35:30.960Z,100.00
2022-11-05T13:38:23.431Z,100.00
2022-11-05T13:41:03.380Z,100.00
2022-11-05T13:43:48.048Z,100.00
2022-11-05T13:46:41.132Z,100.00
2022-11-05T13:49:46.195Z,100.00
2022-11-05T13:52:36.778Z,100.00
2022-11-05T13:55:22.764Z,100.00
2022-11-05T13:58:10.519Z,100.00
2022-11-05T14:00:45.292Z,100.00
2022-11-05T14:03:19.216Z,100.00
2022-11-05T14:05:55.183Z,100.00
2022-11-05T14:08:28.771Z,100.00
2022-11-05T14:11:04.318Z,100.00
2022-11-05T14:13:37.085Z,100.00
2022-11-05T14:16:09.144Z,100.00
2022-11-05T14:18:40.993Z,100.00
2022-11-05T14:21:31.964Z,100.00
2022-11-05T14:24:01.259Z,100.00
2022-11-05T14:26:33.212Z,100.00
2022-11-05T14:29:26.159Z,100.00
2022-11-05T14:32:14.621Z,100.00
2022-11-05T14:34:46.251Z,100.00
2022-11-05T14:37:30.853Z,100.00
2022-11-05T14:40:24.336Z,100.00
2022-11-05T14:42:56.076Z,100.00
2022-11-05T14:45:29.744Z,100.00
2022-11-05T14:47:59.543Z,100.00
2022-11-05T14:50:34.681Z,100.00
2022-11-05T14:53:11.425Z,100.00
2022-11-05T14:55:42.655Z,100.00
2022-11-05T14:58:30.883Z,100.00
2022-11-05T15:01:00.141Z,100.00
2022-11-05T15:04:00.583Z,100.00
2022-11-05T15:06:31.899Z,100.00
2022-11-05T15:09:12.902Z,100.00
2022-11-05T15:11:44.176Z,100.00
2022-11-05T15:14:22.507Z,100.00
2022-11-05T15:16:53.453Z,100.00
2022-11-05T15:19:25.549Z,100.00
2022-11-05T15:21:57.798Z,100.00
2022-11-05T15:24:28.798Z,100.00
2022-11-05T15:27:03.961Z,100.00
2022-11-05T15:29:34.433Z,100.00
2022-11-05T15:32:03.113Z,100.00
2022-11-05T15:34:32.783Z,100.00
2022-11-05T15:37:02.760Z,100.00
2022-11-05T15:39:34.147Z,100.00
2022-11-05T15:42:07.080Z,100.00
2022-11-05T15:44:41.155Z,100.00
2022-11-05T15:47:26.313Z,100.00
2022-11-05T15:49:56.617Z,100.00
2022-11-05T15:52:33.807Z,100.00
2022-11-05T15:55:31.852Z,100.00
2022-11-05T15:58:03.126Z,100.00
2022-11-05T16:00:39.573Z,100.00
2022-11-05T16:03:25.426Z,100.00
2022-11-05T16:05:54.612Z,100.00
2022-11-05T16:08:24.877Z,100.00
2022-11-05T16:10:54.757Z,100.00
2022-11-05T16:13:29.824Z,100.00
2022-11-05T16:16:01.475Z,100.00
2022-11-05T16:18:34.360Z,100.00
2022-11-05T16:21:04.855Z,100.00
2022-11-05T16:23:45.135Z,100.00
2022-11-05T16:29:29.286Z,100.00
2022-11-05T16:32:00.059Z,100.00
2022-11-05T16:34:31.066Z,100.00
2022-11-05T16:37:00.656Z,100.00
2022-11-05T16:39:28.539Z,100.00
2022-11-05T16:41:56.551Z,100.00
2022-11-05T16:44:24.507Z,100.00
2022-11-05T16:46:52.488Z,100.00
2022-11-05T16:49:21.888Z,100.00
2022-11-05T16:51:49.823Z,100.00
2022-11-05T16:54:17.642Z,100.00
2022-11-05T16:56:47.434Z,100.00
2022-11-05T16:59:15.403Z,100.00
2022-11-05T17:01:44.376Z,100.00
2022-11-05T17:04:14.144Z,100.00
2022-11-05T17:06:43.835Z,100.00
2022-11-05T17:09:11.809Z,100.00
2022-11-05T17:11:39.853Z,100.00
2022-11-05T17:14:10.647Z,100.00
2022-11-05T17:16:39.475Z,100.00
2022-11-05T17:19:08.253Z,100.00
2022-11-05T17:21:36.819Z,100.00
2022-11-05T17:24:06.915Z,100.00
2022-11-05T17:26:34.883Z,100.00
2022-11-05T17:29:02.879Z,100.00
2022-11-05T17:31:30.818Z,100.00
2022-11-05T17:33:59.749Z,100.00
2022-11-05T17:36:27.851Z,100.00
2022-11-05T17:38:55.674Z,100.00
2022-11-05T17:41:25.485Z,100.00
2022-11-05T17:43:56.057Z,100.00
2022-11-05T17:46:25.629Z,100.00
2022-11-05T17:48:53.519Z,100.00
2022-11-05T17:51:21.656Z,100.00
2022-11-05T17:53:50.159Z,100.00
2022-11-05T17:56:29.189Z,100.00
2022-11-05T17:59:03.510Z,100.00
2022-11-05T18:01:33.960Z,100.00
2022-11-05T18:04:08.664Z,100.00
2022-11-05T18:06:37.382Z,100.00
2022-11-05T18:09:06.198Z,100.00
2022-11-05T18:11:34.450Z,100.00
2022-11-05T18:14:04.000Z,100.00
2022-11-05T18:16:32.144Z,100.00
2022-11-05T18:19:00.050Z,100.00
2022-11-05T18:21:28.037Z,100.00
2022-11-05T18:23:56.356Z,100.00
2022-11-05T18:26:26.591Z,100.00
2022-11-05T18:28:54.599Z,100.00
2022-11-05T18:31:24.084Z,100.00
2022-11-05T18:33:52.669Z,100.00
2022-11-05T18:36:21.527Z,100.00
2022-11-05T18:38:50.264Z,100.00
2022-11-05T18:41:19.178Z,100.00
2022-11-05T18:43:47.424Z,100.00
2022-11-05T18:46:35.856Z,100.00
2022-11-05T18:49:04.737Z,100.00
2022-11-05T18:51:32.679Z,100.00
2022-11-05T18:54:00.675Z,100.00
2022-11-05T18:56:28.545Z,100.00
2022-11-05T18:59:15.084Z,100.00
2022-11-05T19:01:44.702Z,100.00
2022-11-05T19:04:14.166Z,100.00
2022-11-05T19:06:42.778Z,100.00
2022-11-05T19:09:12.106Z,100.00
2022-11-05T19:11:41.195Z,100.00
2022-11-05T19:14:09.492Z,100.00
2022-11-05T19:16:37.767Z,100.00
2022-11-05T19:19:07.795Z,100.00
2022-11-05T19:21:37.131Z,100.00
2022-11-05T19:24:05.662Z,100.00
2022-11-05T19:26:33.898Z,100.00
2022-11-05T19:29:03.739Z,100.00
2022-11-05T19:31:33.453Z,100.00
2022-11-05T19:34:03.163Z,100.00
2022-11-05T19:36:31.204Z,100.00
2022-11-05T19:39:06.511Z,100.00
2022-11-05T19:41:34.408Z,100.00
2022-11-05T19:44:02.693Z,100.00
2022-11-05T19:46:31.651Z,100.00
2022-11-05T19:49:00.873Z,100.00
2022-11-05T19:51:30.592Z,100.00
2022-11-05T19:54:01.643Z,100.00
2022-11-05T19:56:32.680Z,100.00
2022-11-05T19:59:01.440Z,100.00
2022-11-05T20:01:30.979Z,100.00
2022-11-05T20:03:59.740Z,100.00
2022-11-05T20:06:32.002Z,100.00
2022-11-05T20:11:53.874Z,100.00
2022-11-05T20:14:21.823Z,100.00
2022-11-05T20:16:50.382Z,100.00
2022-11-05T20:19:21.631Z,100.00
2022-11-05T20:21:49.947Z,100.00
2022-11-05T20:24:25.041Z,100.00
2022-11-05T20:26:54.198Z,100.00
2022-11-05T20:29:22.562Z,100.00
2022-11-05T20:31:51.033Z,100.00
2022-11-05T20:34:18.879Z,100.00
2022-11-05T20:36:47.087Z,100.00
2022-11-05T20:39:15.085Z,100.00
2022-11-05T20:41:44.347Z,100.00
2022-11-05T20:44:12.514Z,100.00
2022-11-05T20:46:40.446Z,100.00
2022-11-05T20:49:08.280Z,100.00
2022-11-05T20:51:36.216Z,100.00
2022-11-05T20:54:05.428Z,100.00
2022-11-05T20:56:35.580Z,100.00
2022-11-05T20:59:05.847Z,100.00
2022-11-05T21:01:35.004Z,100.00
2022-11-05T21:04:04.344Z,100.00
2022-11-05T21:06:33.832Z,100.00
2022-11-05T21:09:02.039Z,100.00
2022-11-05T21:11:50.147Z,100.00
2022-11-05T21:14:19.522Z,100.00
2022-11-05T21:16:47.410Z,100.00
2022-11-05T21:19:16.265Z,100.00
2022-11-05T21:21:44.201Z,100.00
2022-11-05T21:24:12.179Z,100.00
2022-11-05T21:26:40.210Z,100.00
2022-11-05T21:29:08.587Z,100.00
2022-11-05T21:31:38.757Z,100.00
2022-11-05T21:34:06.636Z,100.00
2022-11-05T21:36:35.438Z,100.00
2022-11-05T21:39:06.622Z,100.00
2022-11-05T21:41:37.570Z,100.00
2022-11-05T21:44:05.539Z,100.00
2022-11-05T21:46:33.418Z,100.00
2022-11-05T21:49:02.673Z,100.00
2022-11-05T21:51:48.044Z,100.00
2022-11-05T21:54:33.632Z,100.00
2022-11-05T21:57:19.072Z,100.00
2022-11-05T21:59:51.807Z,100.00
2022-11-05T22:02:22.140Z,100.00
2022-11-05T22:04:52.832Z,100.00
2022-11-05T22:07:22.329Z,100.00
2022-11-05T22:09:50.847Z,100.00
2022-11-05T22:12:18.893Z,100.00
2022-11-05T22:14:46.743Z,100.00
2022-11-05T22:17:15.512Z,100.00
2022-11-05T22:19:44.014Z,100.00
2022-11-05T22:22:13.973Z,100.00
2022-11-05T22:24:42.924Z,100.00
2022-11-05T22:27:15.058Z,100.00
2022-11-05T22:29:43.268Z,100.00
2022-11-05T22:32:12.095Z,100.00
2022-11-05T22:34:39.956Z,100.00
2022-11-05T22:37:07.979Z,100.00
2022-11-05T22:39:37.214Z,100.00
2022-11-05T22:42:08.890Z,100.00
2022-11-05T22:44:37.533Z,100.00
2022-11-05T22:47:06.188Z,100.00
2022-11-05T22:49:34.441Z,100.00
2022-11-05T22:52:02.464Z,100.00
2022-11-05T22:54:35.087Z,100.00
2022-11-05T22:57:07.696Z,100.00
2022-11-05T22:59:35.565Z,100.00
2022-11-05T23:02:09.229Z,100.00
2022-11-05T23:04:38.738Z,100.00
2022-11-05T23:07:27.651Z,100.00
2022-11-05T23:10:13.837Z,100.00
2022-11-05T23:12:44.677Z,100.00
2022-11-05T23:15:34.532Z,100.00
2022-11-05T23:18:20.353Z,100.00
2022-11-05T23:21:06.532Z,100.00
2022-11-05T23:23:51.627Z,100.00
2022-11-05T23:26:48.301Z,100.00
2022-11-05T23:29:17.685Z,100.00
2022-11-05T23:32:03.406Z,100.00
2022-11-05T23:34:31.482Z,100.00
2022-11-05T23:37:17.319Z,100.00
2022-11-05T23:39:45.170Z,100.00
2022-11-05T23:42:30.927Z,100.00
2022-11-05T23:45:17.436Z,100.00
2022-11-05T23:48:02.958Z,100.00
2022-11-05T23:50:35.551Z,100.00
2022-11-05T23:53:05.191Z,100.00
2022-11-05T23:55:33.072Z,100.00
2022-11-05T23:58:00.925Z,100.00
